sensor_id;sensor_type;location;lat;lon;timestamp;P1;P2;P0
33264;PMS5003;31404;53.974;-1.086;2022-11-22T00:00:40;2;2;
33264;PMS5003;31404;53.974;-1.086;2022-11-22T00:05:39;1;1;
33264;PMS5003;31404;53.974;-1.086;2022-11-22T00:10:39;3;3;
33264;PMS5003;31404;53.974;-1.086;2022-11-22T00:15:39;1;1;
33264;PMS5003;31404;53.974;-1.086;2022-11-22T00:20:39;1;1;
33264;PMS5003;31404;53.974;-1.086;2022-11-22T00:25:39;2;1;
33264;PMS5003;31404;53.974;-1.086;2022-11-22T00:30:39;0;0;
33264;PMS5003;31404;53.974;-1.086;2022-11-22T00:35:39;1;1;
33264;PMS5003;31404;53.974;-1.086;2022-11-22T00:40:39;0;0;
33264;PMS5003;31404;53.974;-1.086;2022-11-22T00:45:39;2;1;
33264;PMS5003;31404;53.974;-1.086;2022-11-22T00:50:39;3;2;
33264;PMS5003;31404;53.974;-1.086;2022-11-22T00:55:40;2;2;
33264;PMS5003;31404;53.974;-1.086;2022-11-22T01:00:39;2;2;
33264;PMS5003;31404;53.974;-1.086;2022-11-22T01:05:39;2;2;
33264;PMS5003;31404;53.974;-1.086;2022-11-22T01:10:39;3;1;
33264;PMS5003;31404;53.974;-1.086;2022-11-22T01:15:40;1;1;
33264;PMS5003;31404;53.974;-1.086;2022-11-22T01:20:39;1;1;
33264;PMS5003;31404;53.974;-1.086;2022-11-22T01:25:33;1;1;
33264;PMS5003;31404;53.974;-1.086;2022-11-22T01:30:39;4;2;
33264;PMS5003;31404;53.974;-1.086;2022-11-22T01:35:40;1;1;
33264;PMS5003;31404;53.974;-1.086;2022-11-22T01:40:38;4;2;
33264;PMS5003;31404;53.974;-1.086;2022-11-22T01:45:42;1;1;
33264;PMS5003;31404;53.974;-1.086;2022-11-22T01:50:40;1;1;
33264;PMS5003;31404;53.974;-1.086;2022-11-22T01:55:39;2;2;
33264;PMS5003;31404;53.974;-1.086;2022-11-22T02:00:39;0;0;
33264;PMS5003;31404;53.974;-1.086;2022-11-22T02:05:39;2;0;
33264;PMS5003;31404;53.974;-1.086;2022-11-22T02:10:41;0;0;
33264;PMS5003;31404;53.974;-1.086;2022-11-22T02:15:40;1;1;
33264;PMS5003;31404;53.974;-1.086;2022-11-22T02:20:39;2;2;
33264;PMS5003;31404;53.974;-1.086;2022-11-22T02:30:39;1;1;
33264;PMS5003;31404;53.974;-1.086;2022-11-22T02:35:40;2;1;
33264;PMS5003;31404;53.974;-1.086;2022-11-22T02:40:41;1;1;
33264;PMS5003;31404;53.974;-1.086;2022-11-22T02:45:39;1;1;
33264;PMS5003;31404;53.974;-1.086;2022-11-22T02:50:39;0;0;
33264;PMS5003;31404;53.974;-1.086;2022-11-22T02:55:39;1;1;
33264;PMS5003;31404;53.974;-1.086;2022-11-22T03:00:39;1;1;
33264;PMS5003;31404;53.974;-1.086;2022-11-22T03:05:39;0;0;
33264;PMS5003;31404;53.974;-1.086;2022-11-22T03:10:40;1;0;
33264;PMS5003;31404;53.974;-1.086;2022-11-22T03:15:40;1;1;
33264;PMS5003;31404;53.974;-1.086;2022-11-22T03:20:39;2;1;
33264;PMS5003;31404;53.974;-1.086;2022-11-22T03:25:39;1;1;
33264;PMS5003;31404;53.974;-1.086;2022-11-22T03:30:39;1;1;
33264;PMS5003;31404;53.974;-1.086;2022-11-22T03:35:39;0;0;
33264;PMS5003;31404;53.974;-1.086;2022-11-22T03:40:39;2;2;
33264;PMS5003;31404;53.974;-1.086;2022-11-22T03:50:40;1;1;
33264;PMS5003;31404;53.974;-1.086;2022-11-22T03:55:39;1;1;
33264;PMS5003;31404;53.974;-1.086;2022-11-22T04:00:39;0;0;
33264;PMS5003;31404;53.974;-1.086;2022-11-22T04:05:40;1;1;
33264;PMS5003;31404;53.974;-1.086;2022-11-22T04:10:39;0;0;
33264;PMS5003;31404;53.974;-1.086;2022-11-22T04:15:38;3;2;
33264;PMS5003;31404;53.974;-1.086;2022-11-22T04:20:39;4;2;
33264;PMS5003;31404;53.974;-1.086;2022-11-22T04:25:40;0;0;
33264;PMS5003;31404;53.974;-1.086;2022-11-22T04:30:39;2;2;
33264;PMS5003;31404;53.974;-1.086;2022-11-22T04:35:40;1;1;
33264;PMS5003;31404;53.974;-1.086;2022-11-22T04:40:38;2;0;
33264;PMS5003;31404;53.974;-1.086;2022-11-22T04:45:39;1;1;
33264;PMS5003;31404;53.974;-1.086;2022-11-22T04:50:39;3;0;
33264;PMS5003;31404;53.974;-1.086;2022-11-22T04:55:39;1;1;
33264;PMS5003;31404;53.974;-1.086;2022-11-22T05:00:39;1;1;
33264;PMS5003;31404;53.974;-1.086;2022-11-22T05:05:40;5;1;
33264;PMS5003;31404;53.974;-1.086;2022-11-22T05:10:40;2;2;
33264;PMS5003;31404;53.974;-1.086;2022-11-22T05:15:40;3;2;
33264;PMS5003;31404;53.974;-1.086;2022-11-22T05:20:39;1;1;
33264;PMS5003;31404;53.974;-1.086;2022-11-22T05:25:40;1;1;
33264;PMS5003;31404;53.974;-1.086;2022-11-22T05:30:39;3;1;
33264;PMS5003;31404;53.974;-1.086;2022-11-22T05:35:39;1;1;
33264;PMS5003;31404;53.974;-1.086;2022-11-22T05:40:38;2;2;
33264;PMS5003;31404;53.974;-1.086;2022-11-22T05:45:39;4;4;
33264;PMS5003;31404;53.974;-1.086;2022-11-22T05:50:39;1;1;
33264;PMS5003;31404;53.974;-1.086;2022-11-22T05:55:39;1;1;
33264;PMS5003;31404;53.974;-1.086;2022-11-22T06:00:39;2;0;
33264;PMS5003;31404;53.974;-1.086;2022-11-22T06:05:40;1;1;
33264;PMS5003;31404;53.974;-1.086;2022-11-22T06:10:40;2;0;
33264;PMS5003;31404;53.974;-1.086;2022-11-22T06:15:39;4;2;
33264;PMS5003;31404;53.974;-1.086;2022-11-22T06:20:39;4;4;
33264;PMS5003;31404;53.974;-1.086;2022-11-22T06:25:41;3;2;
33264;PMS5003;31404;53.974;-1.086;2022-11-22T06:30:39;1;1;
33264;PMS5003;31404;53.974;-1.086;2022-11-22T06:35:40;1;1;
33264;PMS5003;31404;53.974;-1.086;2022-11-22T06:40:39;3;2;
33264;PMS5003;31404;53.974;-1.086;2022-11-22T06:45:39;3;2;
33264;PMS5003;31404;53.974;-1.086;2022-11-22T06:50:39;5;1;
33264;PMS5003;31404;53.974;-1.086;2022-11-22T06:55:39;2;2;
33264;PMS5003;31404;53.974;-1.086;2022-11-22T07:00:39;4;2;
33264;PMS5003;31404;53.974;-1.086;2022-11-22T07:05:40;1;1;
33264;PMS5003;31404;53.974;-1.086;2022-11-22T07:10:39;2;2;
33264;PMS5003;31404;53.974;-1.086;2022-11-22T07:15:39;3;2;
33264;PMS5003;31404;53.974;-1.086;2022-11-22T07:20:39;4;4;
33264;PMS5003;31404;53.974;-1.086;2022-11-22T07:25:42;3;3;
33264;PMS5003;31404;53.974;-1.086;2022-11-22T07:30:39;3;2;
33264;PMS5003;31404;53.974;-1.086;2022-11-22T07:35:40;4;4;
33264;PMS5003;31404;53.974;-1.086;2022-11-22T07:40:39;2;2;
33264;PMS5003;31404;53.974;-1.086;2022-11-22T07:45:40;3;2;
33264;PMS5003;31404;53.974;-1.086;2022-11-22T07:55:39;2;2;
33264;PMS5003;31404;53.974;-1.086;2022-11-22T08:00:39;6;3;
33264;PMS5003;31404;53.974;-1.086;2022-11-22T08:05:39;3;3;
33264;PMS5003;31404;53.974;-1.086;2022-11-22T08:10:39;6;3;
33264;PMS5003;31404;53.974;-1.086;2022-11-22T08:20:39;3;1;
33264;PMS5003;31404;53.974;-1.086;2022-11-22T08:25:39;7;3;
33264;PMS5003;31404;53.974;-1.086;2022-11-22T08:30:39;4;2;
33264;PMS5003;31404;53.974;-1.086;2022-11-22T08:35:39;5;2;
33264;PMS5003;31404;53.974;-1.086;2022-11-22T08:40:40;3;2;
33264;PMS5003;31404;53.974;-1.086;2022-11-22T08:45:39;5;2;
33264;PMS5003;31404;53.974;-1.086;2022-11-22T08:50:39;4;3;
33264;PMS5003;31404;53.974;-1.086;2022-11-22T08:55:40;3;3;
33264;PMS5003;31404;53.974;-1.086;2022-11-22T09:00:39;2;2;
33264;PMS5003;31404;53.974;-1.086;2022-11-22T09:05:39;5;3;
33264;PMS5003;31404;53.974;-1.086;2022-11-22T09:10:39;6;4;
33264;PMS5003;31404;53.974;-1.086;2022-11-22T09:15:41;2;2;
33264;PMS5003;31404;53.974;-1.086;2022-11-22T09:20:40;4;3;
33264;PMS5003;31404;53.974;-1.086;2022-11-22T09:25:40;6;6;
33264;PMS5003;31404;53.974;-1.086;2022-11-22T09:30:39;5;3;
33264;PMS5003;31404;53.974;-1.086;2022-11-22T09:35:39;3;3;
33264;PMS5003;31404;53.974;-1.086;2022-11-22T09:40:34;2;2;
33264;PMS5003;31404;53.974;-1.086;2022-11-22T09:45:43;4;3;
33264;PMS5003;31404;53.974;-1.086;2022-11-22T09:50:41;4;2;
33264;PMS5003;31404;53.974;-1.086;2022-11-22T09:55:40;3;3;
33264;PMS5003;31404;53.974;-1.086;2022-11-22T10:00:40;1;1;
33264;PMS5003;31404;53.974;-1.086;2022-11-22T10:05:42;4;4;
33264;PMS5003;31404;53.974;-1.086;2022-11-22T10:10:39;5;3;
33264;PMS5003;31404;53.974;-1.086;2022-11-22T10:15:43;3;1;
33264;PMS5003;31404;53.974;-1.086;2022-11-22T10:25:41;3;3;
33264;PMS5003;31404;53.974;-1.086;2022-11-22T10:30:40;5;4;
33264;PMS5003;31404;53.974;-1.086;2022-11-22T10:40:41;4;1;
33264;PMS5003;31404;53.974;-1.086;2022-11-22T10:45:40;4;4;
33264;PMS5003;31404;53.974;-1.086;2022-11-22T10:55:42;6;4;
33264;PMS5003;31404;53.974;-1.086;2022-11-22T11:00:40;4;4;
33264;PMS5003;31404;53.974;-1.086;2022-11-22T11:05:41;3;3;
33264;PMS5003;31404;53.974;-1.086;2022-11-22T11:10:39;4;3;
33264;PMS5003;31404;53.974;-1.086;2022-11-22T11:15:40;4;2;
33264;PMS5003;31404;53.974;-1.086;2022-11-22T11:20:40;3;3;
33264;PMS5003;31404;53.974;-1.086;2022-11-22T11:25:39;2;2;
33264;PMS5003;31404;53.974;-1.086;2022-11-22T11:30:40;6;5;
33264;PMS5003;31404;53.974;-1.086;2022-11-22T11:35:41;6;4;
33264;PMS5003;31404;53.974;-1.086;2022-11-22T11:40:38;2;0;
33264;PMS5003;31404;53.974;-1.086;2022-11-22T11:45:39;7;5;
33264;PMS5003;31404;53.974;-1.086;2022-11-22T11:50:39;8;6;
33264;PMS5003;31404;53.974;-1.086;2022-11-22T11:55:39;8;8;
33264;PMS5003;31404;53.974;-1.086;2022-11-22T12:00:39;4;4;
33264;PMS5003;31404;53.974;-1.086;2022-11-22T12:05:39;3;3;
33264;PMS5003;31404;53.974;-1.086;2022-11-22T12:10:40;3;2;
33264;PMS5003;31404;53.974;-1.086;2022-11-22T12:15:42;6;4;
33264;PMS5003;31404;53.974;-1.086;2022-11-22T12:20:40;7;5;
33264;PMS5003;31404;53.974;-1.086;2022-11-22T12:25:40;4;4;
33264;PMS5003;31404;53.974;-1.086;2022-11-22T12:30:40;5;3;
33264;PMS5003;31404;53.974;-1.086;2022-11-22T12:35:41;6;6;
33264;PMS5003;31404;53.974;-1.086;2022-11-22T12:40:40;8;8;
33264;PMS5003;31404;53.974;-1.086;2022-11-22T12:45:41;5;5;
33264;PMS5003;31404;53.974;-1.086;2022-11-22T12:50:40;8;5;
33264;PMS5003;31404;53.974;-1.086;2022-11-22T12:55:42;6;5;
33264;PMS5003;31404;53.974;-1.086;2022-11-22T13:00:41;5;5;
33264;PMS5003;31404;53.974;-1.086;2022-11-22T13:05:42;7;7;
33264;PMS5003;31404;53.974;-1.086;2022-11-22T13:10:40;5;3;
33264;PMS5003;31404;53.974;-1.086;2022-11-22T13:15:39;6;6;
33264;PMS5003;31404;53.974;-1.086;2022-11-22T13:20:41;4;4;
33264;PMS5003;31404;53.974;-1.086;2022-11-22T13:30:39;8;6;
33264;PMS5003;31404;53.974;-1.086;2022-11-22T13:35:39;7;4;
33264;PMS5003;31404;53.974;-1.086;2022-11-22T13:40:40;5;5;
33264;PMS5003;31404;53.974;-1.086;2022-11-22T13:55:39;5;4;
33264;PMS5003;31404;53.974;-1.086;2022-11-22T14:00:39;5;4;
33264;PMS5003;31404;53.974;-1.086;2022-11-22T14:05:46;4;4;
33264;PMS5003;31404;53.974;-1.086;2022-11-22T14:10:40;4;4;
33264;PMS5003;31404;53.974;-1.086;2022-11-22T14:20:41;4;3;
33264;PMS5003;31404;53.974;-1.086;2022-11-22T14:25:43;4;4;
33264;PMS5003;31404;53.974;-1.086;2022-11-22T14:36:11;5;4;
33264;PMS5003;31404;53.974;-1.086;2022-11-22T14:40:40;8;5;
33264;PMS5003;31404;53.974;-1.086;2022-11-22T14:45:41;9;7;
33264;PMS5003;31404;53.974;-1.086;2022-11-22T14:50:40;6;5;
33264;PMS5003;31404;53.974;-1.086;2022-11-22T14:55:39;4;4;
33264;PMS5003;31404;53.974;-1.086;2022-11-22T15:15:39;6;3;
33264;PMS5003;31404;53.974;-1.086;2022-11-22T15:20:40;11;9;
33264;PMS5003;31404;53.974;-1.086;2022-11-22T15:25:40;12;8;
33264;PMS5003;31404;53.974;-1.086;2022-11-22T15:30:39;9;6;
33264;PMS5003;31404;53.974;-1.086;2022-11-22T15:35:41;14;9;
33264;PMS5003;31404;53.974;-1.086;2022-11-22T15:40:39;12;9;
33264;PMS5003;31404;53.974;-1.086;2022-11-22T15:45:40;7;7;
33264;PMS5003;31404;53.974;-1.086;2022-11-22T15:50:38;8;8;
33264;PMS5003;31404;53.974;-1.086;2022-11-22T15:55:39;8;4;
33264;PMS5003;31404;53.974;-1.086;2022-11-22T16:00:41;8;5;
33264;PMS5003;31404;53.974;-1.086;2022-11-22T16:05:39;7;7;
33264;PMS5003;31404;53.974;-1.086;2022-11-22T16:10:40;7;7;
33264;PMS5003;31404;53.974;-1.086;2022-11-22T16:15:39;8;8;
33264;PMS5003;31404;53.974;-1.086;2022-11-22T16:20:40;10;7;
33264;PMS5003;31404;53.974;-1.086;2022-11-22T16:25:40;5;5;
33264;PMS5003;31404;53.974;-1.086;2022-11-22T16:30:40;10;8;
33264;PMS5003;31404;53.974;-1.086;2022-11-22T16:35:39;5;3;
33264;PMS5003;31404;53.974;-1.086;2022-11-22T16:40:40;11;11;
33264;PMS5003;31404;53.974;-1.086;2022-11-22T16:45:39;9;7;
33264;PMS5003;31404;53.974;-1.086;2022-11-22T16:50:39;12;12;
33264;PMS5003;31404;53.974;-1.086;2022-11-22T16:55:40;6;6;
33264;PMS5003;31404;53.974;-1.086;2022-11-22T17:00:39;6;6;
33264;PMS5003;31404;53.974;-1.086;2022-11-22T17:05:40;5;5;
33264;PMS5003;31404;53.974;-1.086;2022-11-22T17:10:41;8;7;
33264;PMS5003;31404;53.974;-1.086;2022-11-22T17:15:39;11;9;
33264;PMS5003;31404;53.974;-1.086;2022-11-22T17:20:39;14;13;
33264;PMS5003;31404;53.974;-1.086;2022-11-22T17:25:39;10;8;
33264;PMS5003;31404;53.974;-1.086;2022-11-22T17:31:35;12;12;
33264;PMS5003;31404;53.974;-1.086;2022-11-22T17:35:40;11;11;
33264;PMS5003;31404;53.974;-1.086;2022-11-22T17:40:40;9;9;
33264;PMS5003;31404;53.974;-1.086;2022-11-22T17:45:41;19;16;
33264;PMS5003;31404;53.974;-1.086;2022-11-22T17:50:40;10;9;
33264;PMS5003;31404;53.974;-1.086;2022-11-22T17:55:40;10;8;
33264;PMS5003;31404;53.974;-1.086;2022-11-22T18:00:39;11;10;
33264;PMS5003;31404;53.974;-1.086;2022-11-22T18:05:40;13;11;
33264;PMS5003;31404;53.974;-1.086;2022-11-22T18:10:40;11;10;
33264;PMS5003;31404;53.974;-1.086;2022-11-22T18:15:40;24;21;
33264;PMS5003;31404;53.974;-1.086;2022-11-22T18:20:39;23;22;
33264;PMS5003;31404;53.974;-1.086;2022-11-22T18:25:41;23;20;
33264;PMS5003;31404;53.974;-1.086;2022-11-22T18:30:40;24;22;
33264;PMS5003;31404;53.974;-1.086;2022-11-22T18:35:39;24;24;
33264;PMS5003;31404;53.974;-1.086;2022-11-22T18:45:39;26;26;
33264;PMS5003;31404;53.974;-1.086;2022-11-22T18:50:39;21;18;
33264;PMS5003;31404;53.974;-1.086;2022-11-22T18:55:39;22;20;
33264;PMS5003;31404;53.974;-1.086;2022-11-22T19:00:40;17;17;
33264;PMS5003;31404;53.974;-1.086;2022-11-22T19:05:40;23;20;
33264;PMS5003;31404;53.974;-1.086;2022-11-22T19:10:39;30;25;
33264;PMS5003;31404;53.974;-1.086;2022-11-22T19:15:39;27;24;
33264;PMS5003;31404;53.974;-1.086;2022-11-22T19:20:39;29;28;
33264;PMS5003;31404;53.974;-1.086;2022-11-22T19:25:39;36;30;
33264;PMS5003;31404;53.974;-1.086;2022-11-22T19:30:38;28;25;
33264;PMS5003;31404;53.974;-1.086;2022-11-22T19:35:39;28;26;
33264;PMS5003;31404;53.974;-1.086;2022-11-22T19:40:39;36;30;
33264;PMS5003;31404;53.974;-1.086;2022-11-22T19:45:39;21;20;
33264;PMS5003;31404;53.974;-1.086;2022-11-22T19:50:39;27;20;
33264;PMS5003;31404;53.974;-1.086;2022-11-22T19:55:40;17;17;
33264;PMS5003;31404;53.974;-1.086;2022-11-22T20:00:39;20;16;
33264;PMS5003;31404;53.974;-1.086;2022-11-22T20:05:39;18;16;
33264;PMS5003;31404;53.974;-1.086;2022-11-22T20:10:39;15;13;
33264;PMS5003;31404;53.974;-1.086;2022-11-22T20:15:40;6;6;
33264;PMS5003;31404;53.974;-1.086;2022-11-22T20:20:39;22;20;
33264;PMS5003;31404;53.974;-1.086;2022-11-22T20:25:40;15;14;
33264;PMS5003;31404;53.974;-1.086;2022-11-22T20:30:40;20;20;
33264;PMS5003;31404;53.974;-1.086;2022-11-22T20:35:40;27;26;
33264;PMS5003;31404;53.974;-1.086;2022-11-22T20:40:40;14;14;
33264;PMS5003;31404;53.974;-1.086;2022-11-22T20:45:40;18;18;
33264;PMS5003;31404;53.974;-1.086;2022-11-22T20:50:40;21;20;
33264;PMS5003;31404;53.974;-1.086;2022-11-22T20:55:39;23;21;
33264;PMS5003;31404;53.974;-1.086;2022-11-22T21:00:39;25;22;
33264;PMS5003;31404;53.974;-1.086;2022-11-22T21:05:39;25;18;
33264;PMS5003;31404;53.974;-1.086;2022-11-22T21:10:39;21;20;
33264;PMS5003;31404;53.974;-1.086;2022-11-22T21:15:39;17;16;
33264;PMS5003;31404;53.974;-1.086;2022-11-22T21:20:39;25;25;
33264;PMS5003;31404;53.974;-1.086;2022-11-22T21:25:40;20;20;
33264;PMS5003;31404;53.974;-1.086;2022-11-22T21:30:40;21;20;
33264;PMS5003;31404;53.974;-1.086;2022-11-22T21:35:40;25;23;
33264;PMS5003;31404;53.974;-1.086;2022-11-22T21:40:47;18;17;
33264;PMS5003;31404;53.974;-1.086;2022-11-22T21:45:40;24;24;
33264;PMS5003;31404;53.974;-1.086;2022-11-22T21:50:40;19;17;
33264;PMS5003;31404;53.974;-1.086;2022-11-22T22:00:40;24;24;
33264;PMS5003;31404;53.974;-1.086;2022-11-22T22:05:39;36;30;
33264;PMS5003;31404;53.974;-1.086;2022-11-22T22:10:39;27;23;
33264;PMS5003;31404;53.974;-1.086;2022-11-22T22:15:40;24;24;
33264;PMS5003;31404;53.974;-1.086;2022-11-22T22:20:40;31;29;
33264;PMS5003;31404;53.974;-1.086;2022-11-22T22:25:40;31;28;
33264;PMS5003;31404;53.974;-1.086;2022-11-22T22:30:40;33;30;
33264;PMS5003;31404;53.974;-1.086;2022-11-22T22:35:40;31;29;
33264;PMS5003;31404;53.974;-1.086;2022-11-22T22:40:39;29;27;
33264;PMS5003;31404;53.974;-1.086;2022-11-22T22:45:39;30;29;
33264;PMS5003;31404;53.974;-1.086;2022-11-22T22:50:39;28;25;
33264;PMS5003;31404;53.974;-1.086;2022-11-22T22:55:40;28;24;
33264;PMS5003;31404;53.974;-1.086;2022-11-22T23:00:39;21;20;
33264;PMS5003;31404;53.974;-1.086;2022-11-22T23:05:40;29;22;
33264;PMS5003;31404;53.974;-1.086;2022-11-22T23:10:40;28;25;
33264;PMS5003;31404;53.974;-1.086;2022-11-22T23:15:40;21;19;
33264;PMS5003;31404;53.974;-1.086;2022-11-22T23:20:39;25;25;
33264;PMS5003;31404;53.974;-1.086;2022-11-22T23:25:39;21;16;
33264;PMS5003;31404;53.974;-1.086;2022-11-22T23:30:40;22;21;
33264;PMS5003;31404;53.974;-1.086;2022-11-22T23:35:40;19;16;
33264;PMS5003;31404;53.974;-1.086;2022-11-22T23:40:39;28;26;
33264;PMS5003;31404;53.974;-1.086;2022-11-22T23:50:40;28;22;
33264;PMS5003;31404;53.974;-1.086;2022-11-22T23:55:40;24;19;
